Nearby METAR Reports


KANE - Minneapls/Blaine, Minnesota, USA
Distance from station: ESE 8mi, 13km
Updated: 01/27/2020 6:45am
Light freezing, Drizzle, Overcast
Light freezing, Drizzle, Overcast
 Wind from W
Wind: W 3 mph , 6 km/h
Temperature: 25°F , -4°C
Dew Point: 25°F , -4°C
Humidity: 100%
Barometer: 30.02 inHg , 1016.6 hPa
Summary: Light freezing, Drizzle
Clouds: Overcast
Visibility: 6 miles , 10 km
Cloud details: Overcast 1000 ft
2020/01/27 12:45 KANE 271245Z 28003KT 6SM -FZDZ OVC010 M04/M04 A3002
KMIC - Mnpls/Crystal, Minnesota, USA
Distance from station: S 8mi, 14km
Updated: 01/27/2020 6:53am
Overcast
Overcast
 Wind from WNW
Wind: WNW 6 mph , 9 km/h
Temperature: 25°F , -4°C
Wind Chill: 18°F , -8°C
Dew Point: 21°F , -6°C
Humidity: 86%
Barometer: 30.03 inHg , 1016.9 hPa
Clouds: Overcast
Visibility: 10 miles , 16 km
Cloud details: Overcast 800 ft
2020/01/27 12:53 KMIC 271253Z 30005KT 10SM OVC008 M04/M06 A3003 RMK AO2 CIG 007V011 SLP180 I1000 T10441061
 
KMSP - Minneapolis, Minnesota, USA
Distance from station: SSE 22mi, 35km
Updated: 01/27/2020 7:05am
Overcast
Overcast
 Wind from N
Wind: N 6 mph , 9 km/h
Temperature: 25°F , -4°C
Wind Chill: 18°F , -8°C
Dew Point: 19°F , -7°C
Humidity: 80%
Barometer: 30.04 inHg , 1017.3 hPa
Clouds: Overcast
Visibility: 10 miles , 16 km
Cloud details: Overcast 1000 ft
2020/01/27 13:05 KMSP 271305Z 36005KT 10SM OVC010 M04/M07 A3004 RMK AO2 T10441067
KSTP - St. Paul, Minnesota, USA
Distance from station: SE 23mi, 38km
Updated: 01/27/2020 6:53am
Overcast
Overcast
 Wind from NNE
Wind: NNE 6 mph , 9 km/h
Temperature: 25°F , -4°C
Wind Chill: 18°F , -8°C
Dew Point: 19°F , -7°C
Humidity: 80%
Barometer: 30.05 inHg , 1017.6 hPa
Clouds: Overcast
Visibility: 10 miles , 16 km
Cloud details: Overcast 1000 ft
2020/01/27 12:53 KSTP 271253Z 03005KT 10SM OVC010 M04/M07 A3005 RMK AO2 SLP184 T10441067
 
KCFE - Buffalo Muni, Minnesota, USA
Distance from station: W 24mi, 38km
Updated: 01/27/2020 6:55am
Overcast
Overcast
 
Temperature: 23°F , -5°C
Dew Point: 21°F , -6°C
Humidity: 93%
Barometer: 30.05 inHg , 1017.6 hPa
Clouds: Overcast
Visibility: 7 miles , 11 km
Cloud details: Overcast 800 ft
2020/01/27 12:55 KCFE 271255Z 7SM OVC008 M05/M06 A3005 RMK AO2 T10511063
KFCM - Mnpls/Flying Cld, Minnesota, USA
Distance from station: S 25mi, 40km
Updated: 01/27/2020 6:53am
Overcast
Overcast
 Wind from N
Wind: N 6 mph , 9 km/h
Temperature: 23°F , -5°C
Wind Chill: 16°F , -9°C
Dew Point: 19°F , -7°C
Humidity: 86%
Barometer: 30.02 inHg , 1016.6 hPa
Clouds: Overcast
Visibility: 10 miles , 16 km
Cloud details: Overcast 800 ft
2020/01/27 12:53 KFCM 271253Z 36005KT 10SM OVC008 M05/M07 A3002 RMK AO2 CIG 006V011 SLP179 T10501067
 
KCBG - Cambridge Muni, Minnesota, USA
Distance from station: N 27mi, 43km
Updated: 01/27/2020 6:55am
Haze, Overcast
Haze, Overcast
 Wind from WNW
Wind: WNW 5 mph , 7 km/h
Temperature: 27°F , -3°C
Wind Chill: 21°F , -6°C
Dew Point: 19°F , -7°C
Humidity: 74%
Barometer: 30.03 inHg , 1016.9 hPa
Summary: Haze
Clouds: Overcast
Visibility: 5 miles , 8 km
Cloud details: Mostly cloudy 600 ft
Overcast 1200 ft
2020/01/27 12:55 KCBG 271255Z AUTO 30004KT 5SM HZ BKN006 OVC012 M03/M07 A3003 RMK AO2
KPNM - Princeton Muni, Minnesota, USA
Distance from station: NNW 27mi, 44km
Updated: 01/27/2020 6:56am
Overcast
Overcast
 Wind from NW
Wind: NW 3 mph , 6 km/h
Temperature: 25°F , -4°C
Dew Point: 21°F , -6°C
Humidity: 86%
Barometer: 30.03 inHg , 1016.9 hPa
Clouds: Overcast
Visibility: 10 miles , 16 km
Cloud details: Overcast 600 ft
2020/01/27 12:56 KPNM 271256Z AUTO 31003KT 10SM OVC006 M04/M06 A3003 RMK AO2
 
K21D - Lake Elmo, Minnesota, USA
Distance from station: ESE 28mi, 46km
Updated: 01/27/2020 6:55am
Overcast
Overcast
 Wind from calm
Wind: Calm
Temperature: 25°F , -4°C
Dew Point: 23°F , -5°C
Humidity: 93%
Barometer: 30.04 inHg , 1017.3 hPa
Clouds: Overcast
Visibility: 7 miles , 11 km
Cloud details: Mostly cloudy 600 ft
Overcast 1100 ft
2020/01/27 12:55 K21D 271255Z AUTO 00000KT 7SM BKN006 OVC011 M04/M05 A3004 RMK AO2
KSGS - South St Paul, Minnesota, USA
Distance from station: SE 28mi, 46km
Updated: 01/27/2020 6:56am
Overcast
Overcast
 Wind from NNE
Wind: NNE 5 mph , 7 km/h
Temperature: 25°F , -4°C
Wind Chill: 19°F , -7°C
Dew Point: 23°F , -5°C
Humidity: 93%
Barometer: 30.04 inHg , 1017.3 hPa
Clouds: Overcast
Visibility: 7 miles , 11 km
Cloud details: Overcast 500 ft
2020/01/27 12:56 KSGS 271256Z AUTO 02004KT 7SM OVC005 M04/M05 A3004 RMK AO2 T10441051
 
KMGG - Maple Lake, Minnesota, USA
Distance from station: W 30mi, 48km
Updated: 01/27/2020 6:56am

 Wind from calm
Wind: Calm
Temperature: 23°F , -5°C
Dew Point: 23°F , -5°C
Humidity: 100%
Barometer: 30.05 inHg , 1017.6 hPa
Visibility: 7 miles , 11 km
2020/01/27 12:56 KMGG 271256Z AUTO 00000KT 7SM M05/M05 A3005 RMK AO2 T10501055
KOEO - Osceola, Wisconsin, USA
Distance from station: ENE 34mi, 55km
Updated: 01/27/2020 6:55am
Overcast
Overcast
 Wind from calm
Wind: Calm
Temperature: 25°F , -4°C
Dew Point: 25°F , -4°C
Humidity: 100%
Barometer: 30.06 inHg , 1017.9 hPa
Clouds: Overcast
Visibility: 7 miles , 11 km
Cloud details: Overcast 1100 ft
2020/01/27 12:55 KOEO 271255Z AUTO 00000KT 7SM OVC011 M04/M04 A3006 RMK AO2 T10451045 PWINO
 
KLVN - Mnpls/Airlake, Minnesota, USA
Distance from station: S 39mi, 63km
Updated: 01/27/2020 6:55am
Mist, Overcast
Mist, Overcast
 Wind from calm
Wind: Calm
Temperature: 25°F , -4°C
Dew Point: 25°F , -4°C
Humidity: 100%
Barometer: 30.03 inHg , 1016.9 hPa
Summary: Mist
Clouds: Overcast
Visibility: 3 miles , 5 km
Cloud details: Overcast 300 ft
2020/01/27 12:55 KLVN 271255Z AUTO 00000KT 3SM BR OVC003 M04/M04 A3003 RMK AO2
KRNH - New Richmond Mun, Wisconsin, USA
Distance from station: E 41mi, 66km
Updated: 01/27/2020 6:55am
Mist, Overcast
Mist, Overcast
 Wind from NW
Wind: NW 5 mph , 7 km/h
Temperature: 23°F , -5°C
Wind Chill: 17°F , -8°C
Dew Point: 21°F , -6°C
Humidity: 93%
Barometer: 30.02 inHg , 1016.6 hPa
Summary: Mist
Clouds: Overcast
Visibility: 4 miles , 6 km
Cloud details: Mostly cloudy 400 ft
Overcast 1100 ft
2020/01/27 12:55 KRNH 271255Z AUTO 32004KT 4SM BR BKN004 OVC011 M05/M06 A3002 RMK AO2 T10461057
 
KROS - Rush City, Minnesota, USA
Distance from station: NNE 41mi, 66km
Updated: 01/27/2020 6:56am
Overcast
Overcast
 Wind from calm
Wind: Calm
Temperature: 25°F , -4°C
Dew Point: 23°F , -5°C
Humidity: 93%
Barometer: 30.02 inHg , 1016.6 hPa
Clouds: Overcast
Visibility: 10 miles , 16 km
Cloud details: Overcast 1500 ft
2020/01/27 12:56 KROS 271256Z AUTO 00000KT 10SM OVC015 M04/M05 A3002 RMK AO2 T10411052
KSTC - St. Cloud, Minnesota, USA
Distance from station: NW 41mi, 67km
Updated: 01/27/2020 6:53am
Overcast
Overcast
 Wind from NNW
Wind: NNW 6 mph , 9 km/h
Temperature: 21°F , -6°C
Wind Chill: 13°F , -11°C
Dew Point: 19°F , -7°C
Humidity: 93%
Barometer: 30.03 inHg , 1016.9 hPa
Clouds: Overcast
Visibility: 10 miles , 16 km
Cloud details: Overcast 800 ft
2020/01/27 12:53 KSTC 271253Z 34005KT 10SM OVC008 M06/M07 A3003 RMK AO2 SLP196 T10561072
 
KGYL - Glencoe, Minnesota, USA
Distance from station: SW 46mi, 74km
Updated: 01/27/2020 6:56am
Mist, Overcast
Mist, Overcast
 Wind from N
Wind: N 6 mph , 9 km/h
Temperature: 21°F , -6°C
Wind Chill: 13°F , -11°C
Dew Point: 21°F , -6°C
Humidity: 100%
Barometer: 30.03 inHg , 1016.9 hPa
Summary: Mist
Clouds: Overcast
Visibility: 5 miles , 8 km
Cloud details: Overcast 500 ft
2020/01/27 12:56 KGYL 271256Z AUTO 35005KT 5SM BR OVC005 M06/M06 A3003 RMK AO2 T10571065
KJMR - Mora, Minnesota, USA
Distance from station: N 48mi, 78km
Updated: 01/27/2020 6:55am
Overcast
Overcast
 Wind from NNW
Wind: NNW 6 mph , 9 km/h
Temperature: 25°F , -4°C
Wind Chill: 18°F , -8°C
Dew Point: 23°F , -5°C
Humidity: 93%
Barometer: 30.03 inHg , 1016.9 hPa
Clouds: Overcast
Visibility: 10 miles , 16 km
Cloud details: Mostly cloudy 900 ft
Overcast 1400 ft
2020/01/27 12:55 KJMR 271255Z AUTO 34005KT 10SM BKN009 OVC014 M04/M05 A3003 RMK AO2